sensor_id;sensor_type;location;lat;lon;timestamp;temperature;humidity
44990;DHT22;30723;51.206;3.326;2023-12-29T00:01:59;10.10;99.90
44990;DHT22;30723;51.206;3.326;2023-12-29T00:04:26;10.00;99.90
44990;DHT22;30723;51.206;3.326;2023-12-29T00:06:52;10.00;99.90
44990;DHT22;30723;51.206;3.326;2023-12-29T00:09:18;9.90;99.90
44990;DHT22;30723;51.206;3.326;2023-12-29T00:11:52;9.90;99.90
44990;DHT22;30723;51.206;3.326;2023-12-29T00:14:20;9.90;99.90
44990;DHT22;30723;51.206;3.326;2023-12-29T00:16:46;9.90;99.90
44990;DHT22;30723;51.206;3.326;2023-12-29T00:19:12;9.80;99.90
44990;DHT22;30723;51.206;3.326;2023-12-29T00:21:38;9.80;99.90
44990;DHT22;30723;51.206;3.326;2023-12-29T00:24:07;9.80;99.90
44990;DHT22;30723;51.206;3.326;2023-12-29T00:26:33;9.80;99.90
44990;DHT22;30723;51.206;3.326;2023-12-29T00:28:58;9.80;99.90
44990;DHT22;30723;51.206;3.326;2023-12-29T00:31:24;9.80;99.90
44990;DHT22;30723;51.206;3.326;2023-12-29T00:33:51;9.80;99.90
44990;DHT22;30723;51.206;3.326;2023-12-29T00:36:19;9.70;99.90
44990;DHT22;30723;51.206;3.326;2023-12-29T00:38:46;9.80;99.90
44990;DHT22;30723;51.206;3.326;2023-12-29T00:41:11;9.70;99.90
44990;DHT22;30723;51.206;3.326;2023-12-29T00:43:37;9.70;99.90
44990;DHT22;30723;51.206;3.326;2023-12-29T00:46:04;9.70;99.90
44990;DHT22;30723;51.206;3.326;2023-12-29T00:48:34;9.70;99.90
44990;DHT22;30723;51.206;3.326;2023-12-29T00:51:03;9.70;99.90
44990;DHT22;30723;51.206;3.326;2023-12-29T00:53:29;9.70;99.90
44990;DHT22;30723;51.206;3.326;2023-12-29T00:55:57;9.80;99.90
44990;DHT22;30723;51.206;3.326;2023-12-29T00:58:24;9.80;99.90
44990;DHT22;30723;51.206;3.326;2023-12-29T01:00:49;9.80;99.90
44990;DHT22;30723;51.206;3.326;2023-12-29T01:03:15;9.90;99.90
44990;DHT22;30723;51.206;3.326;2023-12-29T01:05:41;9.90;99.90
44990;DHT22;30723;51.206;3.326;2023-12-29T01:08:07;10.00;99.90
44990;DHT22;30723;51.206;3.326;2023-12-29T01:10:32;10.00;99.90
44990;DHT22;30723;51.206;3.326;2023-12-29T01:12:58;10.10;99.90
44990;DHT22;30723;51.206;3.326;2023-12-29T01:15:24;10.10;99.90
44990;DHT22;30723;51.206;3.326;2023-12-29T01:17:50;10.10;99.90
44990;DHT22;30723;51.206;3.326;2023-12-29T01:20:15;10.20;99.90
44990;DHT22;30723;51.206;3.326;2023-12-29T01:22:41;10.20;99.90
44990;DHT22;30723;51.206;3.326;2023-12-29T01:25:07;10.30;99.90
44990;DHT22;30723;51.206;3.326;2023-12-29T01:27:33;10.30;99.90
44990;DHT22;30723;51.206;3.326;2023-12-29T01:29:59;10.30;99.90
44990;DHT22;30723;51.206;3.326;2023-12-29T01:32:25;10.40;99.90
44990;DHT22;30723;51.206;3.326;2023-12-29T01:34:52;10.40;99.90
44990;DHT22;30723;51.206;3.326;2023-12-29T01:37:18;10.40;99.90
44990;DHT22;30723;51.206;3.326;2023-12-29T01:39:44;10.40;99.90
44990;DHT22;30723;51.206;3.326;2023-12-29T01:42:10;10.50;99.90
44990;DHT22;30723;51.206;3.326;2023-12-29T01:44:36;10.50;99.90
44990;DHT22;30723;51.206;3.326;2023-12-29T01:47:03;10.60;99.90
44990;DHT22;30723;51.206;3.326;2023-12-29T01:49:33;10.60;99.90
44990;DHT22;30723;51.206;3.326;2023-12-29T01:52:00;10.60;99.90
44990;DHT22;30723;51.206;3.326;2023-12-29T01:54:29;10.60;99.90
44990;DHT22;30723;51.206;3.326;2023-12-29T01:56:58;10.60;99.90
44990;DHT22;30723;51.206;3.326;2023-12-29T01:59:25;10.60;99.90
44990;DHT22;30723;51.206;3.326;2023-12-29T02:01:54;10.60;99.90
44990;DHT22;30723;51.206;3.326;2023-12-29T02:04:24;10.60;99.90
44990;DHT22;30723;51.206;3.326;2023-12-29T02:06:51;10.70;99.90
44990;DHT22;30723;51.206;3.326;2023-12-29T02:09:17;10.70;99.90
44990;DHT22;30723;51.206;3.326;2023-12-29T02:11:47;10.70;99.90
44990;DHT22;30723;51.206;3.326;2023-12-29T02:14:17;10.70;99.90
44990;DHT22;30723;51.206;3.326;2023-12-29T02:19:41;10.70;99.90
44990;DHT22;30723;51.206;3.326;2023-12-29T02:22:09;10.80;99.90
44990;DHT22;30723;51.206;3.326;2023-12-29T02:24:36;10.80;99.90
44990;DHT22;30723;51.206;3.326;2023-12-29T02:32:55;10.90;99.90
44990;DHT22;30723;51.206;3.326;2023-12-29T02:35:27;10.80;99.90
44990;DHT22;30723;51.206;3.326;2023-12-29T02:37:55;10.80;99.90
44990;DHT22;30723;51.206;3.326;2023-12-29T02:40:20;10.80;99.90
44990;DHT22;30723;51.206;3.326;2023-12-29T02:42:47;10.80;99.90
44990;DHT22;30723;51.206;3.326;2023-12-29T02:45:17;10.90;99.90
44990;DHT22;30723;51.206;3.326;2023-12-29T02:47:43;10.90;99.90
44990;DHT22;30723;51.206;3.326;2023-12-29T02:50:10;11.00;99.90
44990;DHT22;30723;51.206;3.326;2023-12-29T02:52:36;10.90;99.90
44990;DHT22;30723;51.206;3.326;2023-12-29T02:55:02;10.90;99.90
44990;DHT22;30723;51.206;3.326;2023-12-29T02:57:29;10.90;99.90
44990;DHT22;30723;51.206;3.326;2023-12-29T02:59:55;10.90;99.90
44990;DHT22;30723;51.206;3.326;2023-12-29T03:02:22;10.90;99.90
44990;DHT22;30723;51.206;3.326;2023-12-29T03:04:48;10.90;99.90
44990;DHT22;30723;51.206;3.326;2023-12-29T03:07:14;10.90;99.90
44990;DHT22;30723;51.206;3.326;2023-12-29T03:09:40;10.80;99.90
44990;DHT22;30723;51.206;3.326;2023-12-29T03:12:06;10.90;99.90
44990;DHT22;30723;51.206;3.326;2023-12-29T03:14:32;10.80;99.90
44990;DHT22;30723;51.206;3.326;2023-12-29T03:16:58;10.80;99.90
44990;DHT22;30723;51.206;3.326;2023-12-29T03:19:24;10.80;99.90
44990;DHT22;30723;51.206;3.326;2023-12-29T03:21:50;10.80;99.90
44990;DHT22;30723;51.206;3.326;2023-12-29T03:24:16;10.80;99.90
44990;DHT22;30723;51.206;3.326;2023-12-29T03:26:42;10.80;99.90
44990;DHT22;30723;51.206;3.326;2023-12-29T03:29:08;10.80;99.90
44990;DHT22;30723;51.206;3.326;2023-12-29T03:31:34;10.80;99.90
44990;DHT22;30723;51.206;3.326;2023-12-29T03:33:59;10.70;99.90
44990;DHT22;30723;51.206;3.326;2023-12-29T03:36:25;10.70;99.90
44990;DHT22;30723;51.206;3.326;2023-12-29T03:38:51;10.70;99.90
44990;DHT22;30723;51.206;3.326;2023-12-29T03:41:17;10.70;99.90
44990;DHT22;30723;51.206;3.326;2023-12-29T03:43:43;10.70;99.90
44990;DHT22;30723;51.206;3.326;2023-12-29T03:46:19;10.70;99.90
44990;DHT22;30723;51.206;3.326;2023-12-29T03:48:45;10.70;99.90
44990;DHT22;30723;51.206;3.326;2023-12-29T03:51:11;10.70;99.90
44990;DHT22;30723;51.206;3.326;2023-12-29T03:53:37;10.70;99.90
44990;DHT22;30723;51.206;3.326;2023-12-29T03:56:13;10.70;99.90
44990;DHT22;30723;51.206;3.326;2023-12-29T03:58:38;10.70;99.90
44990;DHT22;30723;51.206;3.326;2023-12-29T04:01:09;10.70;99.90
44990;DHT22;30723;51.206;3.326;2023-12-29T04:03:35;10.70;99.90
44990;DHT22;30723;51.206;3.326;2023-12-29T04:06:02;10.70;99.90
44990;DHT22;30723;51.206;3.326;2023-12-29T04:08:28;10.70;99.90
44990;DHT22;30723;51.206;3.326;2023-12-29T04:10:54;10.70;99.90
44990;DHT22;30723;51.206;3.326;2023-12-29T04:13:19;10.70;99.90
44990;DHT22;30723;51.206;3.326;2023-12-29T04:15:45;10.70;99.90
44990;DHT22;30723;51.206;3.326;2023-12-29T04:18:11;10.80;99.90
44990;DHT22;30723;51.206;3.326;2023-12-29T04:20:37;10.80;99.90
44990;DHT22;30723;51.206;3.326;2023-12-29T04:23:03;10.80;99.90
44990;DHT22;30723;51.206;3.326;2023-12-29T04:25:29;10.90;99.90
44990;DHT22;30723;51.206;3.326;2023-12-29T04:27:55;10.90;99.90
44990;DHT22;30723;51.206;3.326;2023-12-29T04:30:20;10.90;99.90
44990;DHT22;30723;51.206;3.326;2023-12-29T04:32:46;11.00;99.90
44990;DHT22;30723;51.206;3.326;2023-12-29T04:35:12;10.90;99.90
44990;DHT22;30723;51.206;3.326;2023-12-29T04:37:44;10.80;99.90
44990;DHT22;30723;51.206;3.326;2023-12-29T04:40:10;10.70;99.90
44990;DHT22;30723;51.206;3.326;2023-12-29T04:42:36;10.60;99.90
44990;DHT22;30723;51.206;3.326;2023-12-29T04:45:03;10.60;99.90
44990;DHT22;30723;51.206;3.326;2023-12-29T04:47:29;10.50;99.90
44990;DHT22;30723;51.206;3.326;2023-12-29T04:49:55;10.50;99.90
44990;DHT22;30723;51.206;3.326;2023-12-29T04:52:20;10.50;99.90
44990;DHT22;30723;51.206;3.326;2023-12-29T04:54:46;10.50;99.90
44990;DHT22;30723;51.206;3.326;2023-12-29T04:57:12;10.50;99.90
44990;DHT22;30723;51.206;3.326;2023-12-29T04:59:38;10.50;99.90
44990;DHT22;30723;51.206;3.326;2023-12-29T05:02:04;10.50;99.90
44990;DHT22;30723;51.206;3.326;2023-12-29T05:04:29;10.50;99.90
44990;DHT22;30723;51.206;3.326;2023-12-29T05:06:55;10.50;99.90
44990;DHT22;30723;51.206;3.326;2023-12-29T05:09:21;10.50;99.90
44990;DHT22;30723;51.206;3.326;2023-12-29T05:11:46;10.40;99.90
44990;DHT22;30723;51.206;3.326;2023-12-29T05:14:12;10.50;99.90
44990;DHT22;30723;51.206;3.326;2023-12-29T05:16:38;10.50;99.90
44990;DHT22;30723;51.206;3.326;2023-12-29T05:19:04;10.50;99.90
44990;DHT22;30723;51.206;3.326;2023-12-29T05:21:29;10.50;99.90
44990;DHT22;30723;51.206;3.326;2023-12-29T05:23:56;10.50;99.90
44990;DHT22;30723;51.206;3.326;2023-12-29T05:26:22;10.50;99.90
44990;DHT22;30723;51.206;3.326;2023-12-29T05:28:48;10.50;99.90
44990;DHT22;30723;51.206;3.326;2023-12-29T05:31:13;10.50;99.90
44990;DHT22;30723;51.206;3.326;2023-12-29T05:33:39;10.60;99.90
44990;DHT22;30723;51.206;3.326;2023-12-29T05:36:09;10.60;99.90
44990;DHT22;30723;51.206;3.326;2023-12-29T05:38:38;10.60;99.90
44990;DHT22;30723;51.206;3.326;2023-12-29T05:41:06;10.60;99.90
44990;DHT22;30723;51.206;3.326;2023-12-29T05:43:33;10.60;99.90
44990;DHT22;30723;51.206;3.326;2023-12-29T05:46:00;10.60;99.90
44990;DHT22;30723;51.206;3.326;2023-12-29T05:48:26;10.50;99.90
44990;DHT22;30723;51.206;3.326;2023-12-29T05:50:53;10.60;99.90
44990;DHT22;30723;51.206;3.326;2023-12-29T05:53:19;10.60;99.90
44990;DHT22;30723;51.206;3.326;2023-12-29T05:55:44;10.50;99.90
44990;DHT22;30723;51.206;3.326;2023-12-29T05:58:11;10.50;99.90
44990;DHT22;30723;51.206;3.326;2023-12-29T06:00:37;10.40;99.90
44990;DHT22;30723;51.206;3.326;2023-12-29T06:03:05;10.40;99.90
44990;DHT22;30723;51.206;3.326;2023-12-29T06:05:32;10.40;99.90
44990;DHT22;30723;51.206;3.326;2023-12-29T06:07:58;10.40;99.90
44990;DHT22;30723;51.206;3.326;2023-12-29T06:10:24;10.40;99.90
44990;DHT22;30723;51.206;3.326;2023-12-29T06:12:50;10.40;99.90
44990;DHT22;30723;51.206;3.326;2023-12-29T06:15:16;10.40;99.90
44990;DHT22;30723;51.206;3.326;2023-12-29T06:17:42;10.40;99.90
44990;DHT22;30723;51.206;3.326;2023-12-29T06:20:08;10.40;99.90
44990;DHT22;30723;51.206;3.326;2023-12-29T06:22:39;10.40;99.90
44990;DHT22;30723;51.206;3.326;2023-12-29T06:25:09;10.40;99.90
44990;DHT22;30723;51.206;3.326;2023-12-29T06:27:35;10.40;99.90
44990;DHT22;30723;51.206;3.326;2023-12-29T06:30:06;10.40;99.90
44990;DHT22;30723;51.206;3.326;2023-12-29T06:32:32;10.40;99.90
44990;DHT22;30723;51.206;3.326;2023-12-29T06:34:58;10.40;99.90
44990;DHT22;30723;51.206;3.326;2023-12-29T06:37:24;10.40;99.90
44990;DHT22;30723;51.206;3.326;2023-12-29T06:39:50;10.50;99.90
44990;DHT22;30723;51.206;3.326;2023-12-29T06:42:15;10.40;99.90
44990;DHT22;30723;51.206;3.326;2023-12-29T06:44:41;10.40;99.90
44990;DHT22;30723;51.206;3.326;2023-12-29T06:47:07;10.40;99.90
44990;DHT22;30723;51.206;3.326;2023-12-29T06:49:34;10.40;99.90
44990;DHT22;30723;51.206;3.326;2023-12-29T06:52:00;10.40;99.90
44990;DHT22;30723;51.206;3.326;2023-12-29T06:54:26;10.40;99.90
44990;DHT22;30723;51.206;3.326;2023-12-29T06:56:52;10.30;99.90
44990;DHT22;30723;51.206;3.326;2023-12-29T06:59:18;10.30;99.90
44990;DHT22;30723;51.206;3.326;2023-12-29T07:01:45;10.30;99.90
44990;DHT22;30723;51.206;3.326;2023-12-29T07:04:11;10.30;99.90
44990;DHT22;30723;51.206;3.326;2023-12-29T07:06:38;10.40;99.90
44990;DHT22;30723;51.206;3.326;2023-12-29T07:09:04;10.30;99.90
44990;DHT22;30723;51.206;3.326;2023-12-29T07:11:30;10.30;99.90
44990;DHT22;30723;51.206;3.326;2023-12-29T07:13:56;10.30;99.90
44990;DHT22;30723;51.206;3.326;2023-12-29T07:16:22;10.30;99.90
44990;DHT22;30723;51.206;3.326;2023-12-29T07:18:48;10.30;99.90
44990;DHT22;30723;51.206;3.326;2023-12-29T07:21:15;10.40;99.90
44990;DHT22;30723;51.206;3.326;2023-12-29T07:23:42;10.30;99.90
44990;DHT22;30723;51.206;3.326;2023-12-29T07:26:08;10.40;99.90
44990;DHT22;30723;51.206;3.326;2023-12-29T07:28:34;10.40;99.90
44990;DHT22;30723;51.206;3.326;2023-12-29T07:31:00;10.40;99.90
44990;DHT22;30723;51.206;3.326;2023-12-29T07:33:26;10.30;99.90
44990;DHT22;30723;51.206;3.326;2023-12-29T07:35:52;10.30;99.90
44990;DHT22;30723;51.206;3.326;2023-12-29T07:38:18;10.30;99.90
44990;DHT22;30723;51.206;3.326;2023-12-29T07:40:44;10.40;99.90
44990;DHT22;30723;51.206;3.326;2023-12-29T07:43:10;10.40;99.90
44990;DHT22;30723;51.206;3.326;2023-12-29T07:45:36;10.40;99.90
44990;DHT22;30723;51.206;3.326;2023-12-29T07:48:03;10.50;99.90
44990;DHT22;30723;51.206;3.326;2023-12-29T07:50:29;10.40;99.90
44990;DHT22;30723;51.206;3.326;2023-12-29T07:52:55;10.40;99.90
44990;DHT22;30723;51.206;3.326;2023-12-29T07:55:21;10.50;99.90
44990;DHT22;30723;51.206;3.326;2023-12-29T07:57:47;10.50;99.90
44990;DHT22;30723;51.206;3.326;2023-12-29T08:00:16;10.50;99.90
44990;DHT22;30723;51.206;3.326;2023-12-29T08:02:42;10.60;99.90
44990;DHT22;30723;51.206;3.326;2023-12-29T08:05:08;10.60;99.90
44990;DHT22;30723;51.206;3.326;2023-12-29T08:07:37;10.60;99.90
44990;DHT22;30723;51.206;3.326;2023-12-29T08:10:06;10.70;99.90
44990;DHT22;30723;51.206;3.326;2023-12-29T08:12:33;10.70;99.90
44990;DHT22;30723;51.206;3.326;2023-12-29T08:15:00;10.60;99.90
44990;DHT22;30723;51.206;3.326;2023-12-29T08:17:26;10.60;99.90
44990;DHT22;30723;51.206;3.326;2023-12-29T08:19:52;10.70;99.90
44990;DHT22;30723;51.206;3.326;2023-12-29T08:22:19;10.60;99.90
44990;DHT22;30723;51.206;3.326;2023-12-29T08:24:44;10.60;99.90
44990;DHT22;30723;51.206;3.326;2023-12-29T08:27:12;10.60;99.90
44990;DHT22;30723;51.206;3.326;2023-12-29T08:29:38;10.60;99.90
44990;DHT22;30723;51.206;3.326;2023-12-29T08:32:04;10.60;99.90
44990;DHT22;30723;51.206;3.326;2023-12-29T08:34:30;10.60;99.90
44990;DHT22;30723;51.206;3.326;2023-12-29T08:36:58;10.60;99.90
44990;DHT22;30723;51.206;3.326;2023-12-29T08:39:24;10.60;99.90
44990;DHT22;30723;51.206;3.326;2023-12-29T08:41:50;10.70;99.90
44990;DHT22;30723;51.206;3.326;2023-12-29T08:44:16;10.70;99.90
44990;DHT22;30723;51.206;3.326;2023-12-29T08:46:42;10.80;99.90
44990;DHT22;30723;51.206;3.326;2023-12-29T08:49:08;10.80;99.90
44990;DHT22;30723;51.206;3.326;2023-12-29T08:51:34;10.90;99.90
44990;DHT22;30723;51.206;3.326;2023-12-29T08:54:00;10.90;99.90
44990;DHT22;30723;51.206;3.326;2023-12-29T08:56:25;11.00;99.90
44990;DHT22;30723;51.206;3.326;2023-12-29T08:58:51;11.00;99.90
44990;DHT22;30723;51.206;3.326;2023-12-29T09:01:18;11.00;99.90
44990;DHT22;30723;51.206;3.326;2023-12-29T09:03:45;11.00;99.90
44990;DHT22;30723;51.206;3.326;2023-12-29T09:06:11;11.00;99.90
44990;DHT22;30723;51.206;3.326;2023-12-29T09:08:37;11.10;99.90
44990;DHT22;30723;51.206;3.326;2023-12-29T09:11:03;11.10;99.90
44990;DHT22;30723;51.206;3.326;2023-12-29T09:13:29;11.00;99.90
44990;DHT22;30723;51.206;3.326;2023-12-29T09:15:55;11.00;99.90
44990;DHT22;30723;51.206;3.326;2023-12-29T09:18:22;11.00;99.90
44990;DHT22;30723;51.206;3.326;2023-12-29T09:20:47;11.00;99.90
44990;DHT22;30723;51.206;3.326;2023-12-29T09:23:14;11.00;99.90
44990;DHT22;30723;51.206;3.326;2023-12-29T09:25:40;11.10;99.90
44990;DHT22;30723;51.206;3.326;2023-12-29T09:28:06;11.20;99.90
44990;DHT22;30723;51.206;3.326;2023-12-29T09:30:32;11.20;99.90
44990;DHT22;30723;51.206;3.326;2023-12-29T09:32:58;11.30;99.90
44990;DHT22;30723;51.206;3.326;2023-12-29T09:35:24;11.30;99.90
44990;DHT22;30723;51.206;3.326;2023-12-29T09:37:50;11.20;99.90
44990;DHT22;30723;51.206;3.326;2023-12-29T09:40:16;11.30;99.90
44990;DHT22;30723;51.206;3.326;2023-12-29T09:42:43;11.40;99.90
44990;DHT22;30723;51.206;3.326;2023-12-29T09:45:13;11.30;99.90
44990;DHT22;30723;51.206;3.326;2023-12-29T09:47:41;11.40;99.90
44990;DHT22;30723;51.206;3.326;2023-12-29T09:50:11;11.40;99.90
44990;DHT22;30723;51.206;3.326;2023-12-29T09:52:40;11.40;99.90
44990;DHT22;30723;51.206;3.326;2023-12-29T09:55:10;11.40;99.90
44990;DHT22;30723;51.206;3.326;2023-12-29T09:57:40;11.20;99.90
44990;DHT22;30723;51.206;3.326;2023-12-29T10:00:10;11.10;99.90
44990;DHT22;30723;51.206;3.326;2023-12-29T10:02:37;11.00;99.90
44990;DHT22;30723;51.206;3.326;2023-12-29T10:05:03;10.90;99.90
44990;DHT22;30723;51.206;3.326;2023-12-29T10:07:36;10.90;99.90
44990;DHT22;30723;51.206;3.326;2023-12-29T10:10:04;10.90;99.90
44990;DHT22;30723;51.206;3.326;2023-12-29T10:12:32;10.80;99.90
44990;DHT22;30723;51.206;3.326;2023-12-29T10:15:21;10.70;99.90
44990;DHT22;30723;51.206;3.326;2023-12-29T10:18:06;10.70;99.90
44990;DHT22;30723;51.206;3.326;2023-12-29T10:20:45;10.70;99.90
44990;DHT22;30723;51.206;3.326;2023-12-29T10:23:50;10.60;99.90
44990;DHT22;30723;51.206;3.326;2023-12-29T10:26:11;10.60;99.90
44990;DHT22;30723;51.206;3.326;2023-12-29T10:28:37;10.60;99.90
44990;DHT22;30723;51.206;3.326;2023-12-29T10:31:04;10.70;99.90
44990;DHT22;30723;51.206;3.326;2023-12-29T10:33:30;10.70;99.90
44990;DHT22;30723;51.206;3.326;2023-12-29T10:35:59;10.70;99.90
44990;DHT22;30723;51.206;3.326;2023-12-29T10:38:29;10.80;99.90
44990;DHT22;30723;51.206;3.326;2023-12-29T10:41:00;10.80;99.90
44990;DHT22;30723;51.206;3.326;2023-12-29T10:43:35;10.80;99.90
44990;DHT22;30723;51.206;3.326;2023-12-29T10:46:08;10.90;99.90
44990;DHT22;30723;51.206;3.326;2023-12-29T10:48:34;10.90;99.90
44990;DHT22;30723;51.206;3.326;2023-12-29T10:51:03;11.00;99.90
44990;DHT22;30723;51.206;3.326;2023-12-29T10:53:36;11.10;99.90
44990;DHT22;30723;51.206;3.326;2023-12-29T10:56:02;11.10;99.90
44990;DHT22;30723;51.206;3.326;2023-12-29T10:58:29;11.10;99.90
44990;DHT22;30723;51.206;3.326;2023-12-29T11:00:56;11.10;99.90
44990;DHT22;30723;51.206;3.326;2023-12-29T11:03:23;11.10;99.90
44990;DHT22;30723;51.206;3.326;2023-12-29T11:05:51;11.20;99.90
44990;DHT22;30723;51.206;3.326;2023-12-29T11:08:23;11.20;99.90
44990;DHT22;30723;51.206;3.326;2023-12-29T11:10:50;11.20;99.90
44990;DHT22;30723;51.206;3.326;2023-12-29T11:13:16;11.30;99.90
44990;DHT22;30723;51.206;3.326;2023-12-29T11:15:43;11.30;99.90
44990;DHT22;30723;51.206;3.326;2023-12-29T11:18:13;11.30;99.90
44990;DHT22;30723;51.206;3.326;2023-12-29T11:20:39;11.40;99.90
44990;DHT22;30723;51.206;3.326;2023-12-29T11:23:10;11.40;99.90
44990;DHT22;30723;51.206;3.326;2023-12-29T11:25:39;11.40;99.90
44990;DHT22;30723;51.206;3.326;2023-12-29T11:28:06;11.40;99.90
44990;DHT22;30723;51.206;3.326;2023-12-29T11:30:34;11.50;99.90
44990;DHT22;30723;51.206;3.326;2023-12-29T11:33:03;11.50;99.90
44990;DHT22;30723;51.206;3.326;2023-12-29T11:35:39;11.50;99.90
44990;DHT22;30723;51.206;3.326;2023-12-29T11:38:48;11.50;99.90
44990;DHT22;30723;51.206;3.326;2023-12-29T11:43:58;11.40;99.90
44990;DHT22;30723;51.206;3.326;2023-12-29T11:46:40;11.40;99.90
44990;DHT22;30723;51.206;3.326;2023-12-29T11:49:09;11.40;99.90
44990;DHT22;30723;51.206;3.326;2023-12-29T11:51:35;11.30;99.90
44990;DHT22;30723;51.206;3.326;2023-12-29T11:54:02;11.30;99.90
44990;DHT22;30723;51.206;3.326;2023-12-29T11:56:38;11.20;99.90
44990;DHT22;30723;51.206;3.326;2023-12-29T11:59:16;11.20;99.90
44990;DHT22;30723;51.206;3.326;2023-12-29T12:01:43;11.20;99.90
44990;DHT22;30723;51.206;3.326;2023-12-29T12:04:37;11.30;99.90
44990;DHT22;30723;51.206;3.326;2023-12-29T12:07:04;11.30;99.90
44990;DHT22;30723;51.206;3.326;2023-12-29T12:09:31;11.40;99.90
44990;DHT22;30723;51.206;3.326;2023-12-29T12:11:56;11.50;99.90
44990;DHT22;30723;51.206;3.326;2023-12-29T12:14:51;11.50;99.90
44990;DHT22;30723;51.206;3.326;2023-12-29T12:17:33;11.40;99.90
44990;DHT22;30723;51.206;3.326;2023-12-29T12:20:08;11.40;99.90
44990;DHT22;30723;51.206;3.326;2023-12-29T12:22:36;11.40;99.90
44990;DHT22;30723;51.206;3.326;2023-12-29T12:25:02;11.30;99.90
44990;DHT22;30723;51.206;3.326;2023-12-29T12:27:30;11.30;99.90
44990;DHT22;30723;51.206;3.326;2023-12-29T12:29:58;11.30;99.90
44990;DHT22;30723;51.206;3.326;2023-12-29T12:32:27;11.40;99.90
44990;DHT22;30723;51.206;3.326;2023-12-29T12:34:54;11.40;99.90
44990;DHT22;30723;51.206;3.326;2023-12-29T12:37:26;11.40;99.90
44990;DHT22;30723;51.206;3.326;2023-12-29T12:39:52;11.30;99.90
44990;DHT22;30723;51.206;3.326;2023-12-29T12:42:22;11.30;99.90
44990;DHT22;30723;51.206;3.326;2023-12-29T12:45:10;11.40;99.90
44990;DHT22;30723;51.206;3.326;2023-12-29T12:47:44;11.40;99.90
44990;DHT22;30723;51.206;3.326;2023-12-29T12:50:12;11.50;99.90
44990;DHT22;30723;51.206;3.326;2023-12-29T12:52:38;11.60;99.90
44990;DHT22;30723;51.206;3.326;2023-12-29T12:55:06;11.70;99.90
44990;DHT22;30723;51.206;3.326;2023-12-29T12:57:33;11.60;99.90
44990;DHT22;30723;51.206;3.326;2023-12-29T13:00:00;11.50;99.90
44990;DHT22;30723;51.206;3.326;2023-12-29T13:02:27;11.40;99.90
44990;DHT22;30723;51.206;3.326;2023-12-29T13:04:53;11.40;99.90
44990;DHT22;30723;51.206;3.326;2023-12-29T13:07:20;11.40;99.90
44990;DHT22;30723;51.206;3.326;2023-12-29T13:09:48;11.30;99.90
44990;DHT22;30723;51.206;3.326;2023-12-29T13:12:16;11.30;99.90
44990;DHT22;30723;51.206;3.326;2023-12-29T13:14:43;11.30;99.90
44990;DHT22;30723;51.206;3.326;2023-12-29T13:17:13;11.30;99.90
44990;DHT22;30723;51.206;3.326;2023-12-29T13:19:41;11.40;99.90
44990;DHT22;30723;51.206;3.326;2023-12-29T13:22:15;11.40;99.90
44990;DHT22;30723;51.206;3.326;2023-12-29T13:24:45;11.60;99.90
44990;DHT22;30723;51.206;3.326;2023-12-29T13:27:11;11.80;99.90
44990;DHT22;30723;51.206;3.326;2023-12-29T13:29:38;11.80;99.90
44990;DHT22;30723;51.206;3.326;2023-12-29T13:32:22;11.90;99.90
44990;DHT22;30723;51.206;3.326;2023-12-29T13:37:43;12.20;99.90
44990;DHT22;30723;51.206;3.326;2023-12-29T13:40:40;12.20;99.90
44990;DHT22;30723;51.206;3.326;2023-12-29T13:43:08;12.20;99.90
44990;DHT22;30723;51.206;3.326;2023-12-29T13:45:39;12.20;99.90
44990;DHT22;30723;51.206;3.326;2023-12-29T13:48:06;12.10;99.90
44990;DHT22;30723;51.206;3.326;2023-12-29T13:50:33;12.20;99.90
44990;DHT22;30723;51.206;3.326;2023-12-29T13:52:59;12.30;99.90
44990;DHT22;30723;51.206;3.326;2023-12-29T13:55:25;12.30;99.90
44990;DHT22;30723;51.206;3.326;2023-12-29T13:57:52;12.30;99.90
44990;DHT22;30723;51.206;3.326;2023-12-29T14:00:20;12.40;99.90
44990;DHT22;30723;51.206;3.326;2023-12-29T14:03:01;12.40;99.90
44990;DHT22;30723;51.206;3.326;2023-12-29T14:05:46;12.40;99.90
44990;DHT22;30723;51.206;3.326;2023-12-29T14:08:31;12.40;99.90
44990;DHT22;30723;51.206;3.326;2023-12-29T14:10:59;12.40;99.90
44990;DHT22;30723;51.206;3.326;2023-12-29T14:13:25;12.40;99.90
44990;DHT22;30723;51.206;3.326;2023-12-29T14:15:52;12.50;99.90
44990;DHT22;30723;51.206;3.326;2023-12-29T14:21:29;12.30;99.90
44990;DHT22;30723;51.206;3.326;2023-12-29T14:24:09;12.20;99.90
44990;DHT22;30723;51.206;3.326;2023-12-29T14:26:40;12.20;99.90
44990;DHT22;30723;51.206;3.326;2023-12-29T14:29:10;12.20;99.90
44990;DHT22;30723;51.206;3.326;2023-12-29T14:31:41;12.10;99.90
44990;DHT22;30723;51.206;3.326;2023-12-29T14:34:08;12.10;99.90
44990;DHT22;30723;51.206;3.326;2023-12-29T14:36:34;12.10;99.90
44990;DHT22;30723;51.206;3.326;2023-12-29T14:39:02;12.20;99.90
44990;DHT22;30723;51.206;3.326;2023-12-29T14:41:28;12.10;99.90
44990;DHT22;30723;51.206;3.326;2023-12-29T14:43:55;12.00;99.90
44990;DHT22;30723;51.206;3.326;2023-12-29T14:46:20;11.90;99.90
44990;DHT22;30723;51.206;3.326;2023-12-29T14:48:46;11.90;99.90
44990;DHT22;30723;51.206;3.326;2023-12-29T14:51:13;11.90;99.90
44990;DHT22;30723;51.206;3.326;2023-12-29T14:53:39;11.80;99.90
44990;DHT22;30723;51.206;3.326;2023-12-29T14:56:05;11.70;99.90
44990;DHT22;30723;51.206;3.326;2023-12-29T14:58:31;11.60;99.90
44990;DHT22;30723;51.206;3.326;2023-12-29T15:00:58;11.60;99.90
44990;DHT22;30723;51.206;3.326;2023-12-29T15:03:24;11.60;99.90
44990;DHT22;30723;51.206;3.326;2023-12-29T15:05:50;11.70;99.90
44990;DHT22;30723;51.206;3.326;2023-12-29T15:08:16;11.70;99.90
44990;DHT22;30723;51.206;3.326;2023-12-29T15:10:43;11.80;99.90
44990;DHT22;30723;51.206;3.326;2023-12-29T15:13:10;11.80;99.90
44990;DHT22;30723;51.206;3.326;2023-12-29T15:15:36;11.80;99.90
44990;DHT22;30723;51.206;3.326;2023-12-29T15:18:03;11.90;99.90
44990;DHT22;30723;51.206;3.326;2023-12-29T15:20:29;11.80;99.90
44990;DHT22;30723;51.206;3.326;2023-12-29T15:22:54;11.70;99.90
44990;DHT22;30723;51.206;3.326;2023-12-29T15:25:25;11.70;99.90
44990;DHT22;30723;51.206;3.326;2023-12-29T15:27:51;11.70;99.90
44990;DHT22;30723;51.206;3.326;2023-12-29T15:30:17;11.70;99.90
44990;DHT22;30723;51.206;3.326;2023-12-29T15:32:43;11.70;99.90
44990;DHT22;30723;51.206;3.326;2023-12-29T15:35:09;11.70;99.90
44990;DHT22;30723;51.206;3.326;2023-12-29T15:37:35;11.70;99.90
44990;DHT22;30723;51.206;3.326;2023-12-29T15:40:01;11.70;99.90
44990;DHT22;30723;51.206;3.326;2023-12-29T15:42:27;11.70;99.90
44990;DHT22;30723;51.206;3.326;2023-12-29T15:45:02;11.60;99.90
44990;DHT22;30723;51.206;3.326;2023-12-29T15:47:28;11.60;99.90
44990;DHT22;30723;51.206;3.326;2023-12-29T15:49:54;11.70;99.90
44990;DHT22;30723;51.206;3.326;2023-12-29T15:52:19;11.70;99.90
44990;DHT22;30723;51.206;3.326;2023-12-29T15:54:45;11.70;99.90